FHA2TQ EDDL-LGKR
Flight info
| Callsign | FHA2TQ |
|---|---|
| Flight time | 2h 19m |
| Altitude | 35000 |
| Route | DODEN7Z DODEN Y853 BOMBI DCT DETEV DCT DINKU M867 XERUM DCT BAVAX DCT RADIZ DCT ALIVO DCT UNIPA DCT VAKSU DCT RODON DCT LIMJA N732 PITAS PITAS2P |
| Aircraft | B738/M-SDE2E3FGHIRWXY/LB1 |
Departure
| Time | 2026-05-08 04:11 |
|---|---|
| Airport | Düsseldorf Airport (EDDL) |
Arrival
| Time | 2026-05-08 06:31 |
|---|---|
| Airport | Corfu Ioannis Kapodistrias International Airport (LGKR) |
| Time | Latitude | Longitude | Altitude | Speed | Heading |
|---|---|---|---|---|---|
| 2026-05-08 03:39 | 51.27942 | 6.76168 | 127 ft | 0 kts | 91° |
| 2026-05-08 04:03 | 51.27942 | 6.76163 | 127 ft | 3 kts | 91° |
| 2026-05-08 04:03 | 51.27943 | 6.76121 | 126 ft | 4 kts | 91° |
| 2026-05-08 04:04 | 51.27942 | 6.76087 | 123 ft | 4 kts | 76° |
| 2026-05-08 04:04 | 51.27931 | 6.76055 | 124 ft | 4 kts | 27° |
| 2026-05-08 04:04 | 51.27915 | 6.76048 | 126 ft | 0 kts | 1° |
| 2026-05-08 04:07 | 51.27921 | 6.76048 | 124 ft | 2 kts | 1° |
| 2026-05-08 04:07 | 51.27947 | 6.76049 | 124 ft | 5 kts | 1° |
| 2026-05-08 04:07 | 51.27992 | 6.76047 | 125 ft | 8 kts | 360° |
| 2026-05-08 04:07 | 51.28055 | 6.76048 | 127 ft | 8 kts | 0° |
| 2026-05-08 04:08 | 51.28102 | 6.76014 | 127 ft | 8 kts | 299° |
| 2026-05-08 04:08 | 51.28089 | 6.75936 | 128 ft | 8 kts | 234° |
| 2026-05-08 04:08 | 51.28048 | 6.75851 | 127 ft | 12 kts | 232° |
| 2026-05-08 04:08 | 51.27990 | 6.75731 | 128 ft | 15 kts | 232° |
| 2026-05-08 04:09 | 51.27924 | 6.75595 | 127 ft | 15 kts | 233° |
| 2026-05-08 04:09 | 51.27862 | 6.75461 | 122 ft | 12 kts | 233° |
| 2026-05-08 04:09 | 51.27839 | 6.75374 | 125 ft | 8 kts | 279° |
| 2026-05-08 04:09 | 51.27880 | 6.75318 | 122 ft | 8 kts | 333° |
| 2026-05-08 04:10 | 51.27929 | 6.75278 | 123 ft | 8 kts | 333° |
| 2026-05-08 04:10 | 51.27977 | 6.75245 | 123 ft | 5 kts | 354° |
| 2026-05-08 04:10 | 51.28000 | 6.75283 | 120 ft | 5 kts | 52° |
| 2026-05-08 04:10 | 51.28048 | 6.75383 | 123 ft | 34 kts | 52° |
| 2026-05-08 04:11 | 51.28347 | 6.76010 | 127 ft | 106 kts | 53° |
| 2026-05-08 04:11 | 51.28921 | 6.77215 | 149 ft | 163 kts | 53° |
| 2026-05-08 04:11 | 51.29618 | 6.78718 | 808 ft | 170 kts | 53° |
| 2026-05-08 04:11 | 51.30327 | 6.80240 | 1697 ft | 171 kts | 53° |
| 2026-05-08 04:12 | 51.31082 | 6.81833 | 2046 ft | 191 kts | 53° |
| 2026-05-08 04:12 | 51.31931 | 6.83618 | 2271 ft | 211 kts | 52° |
| 2026-05-08 04:12 | 51.32841 | 6.85533 | 2457 ft | 227 kts | 52° |
| 2026-05-08 04:12 | 51.33808 | 6.87614 | 2743 ft | 240 kts | 53° |
| 2026-05-08 04:13 | 51.34802 | 6.89886 | 2993 ft | 256 kts | 60° |
| 2026-05-08 04:13 | 51.35160 | 6.91294 | 3286 ft | 259 kts | 76° |
| 2026-05-08 04:13 | 51.35121 | 6.95122 | 4233 ft | 262 kts | 98° |
| 2026-05-08 04:13 | 51.34815 | 6.98036 | 4896 ft | 266 kts | 99° |
| 2026-05-08 04:14 | 51.34498 | 7.00958 | 5537 ft | 269 kts | 99° |
| 2026-05-08 04:14 | 51.34180 | 7.03952 | 6198 ft | 273 kts | 98° |
| 2026-05-08 04:14 | 51.33868 | 7.06962 | 6848 ft | 277 kts | 98° |
| 2026-05-08 04:14 | 51.33620 | 7.09396 | 7390 ft | 278 kts | 98° |
| 2026-05-08 04:15 | 51.33308 | 7.12453 | 8083 ft | 281 kts | 98° |
| 2026-05-08 04:15 | 51.32991 | 7.15556 | 8766 ft | 284 kts | 101° |
| 2026-05-08 04:15 | 51.32243 | 7.18474 | 9450 ft | 287 kts | 127° |
| 2026-05-08 04:15 | 51.30900 | 7.20844 | 10226 ft | 287 kts | 135° |
| 2026-05-08 04:16 | 51.29948 | 7.22344 | 10517 ft | 297 kts | 136° |
| 2026-05-08 04:16 | 51.28405 | 7.24732 | 10679 ft | 319 kts | 136° |
| 2026-05-08 04:16 | 51.26770 | 7.27260 | 11027 ft | 333 kts | 136° |
| 2026-05-08 04:16 | 51.25083 | 7.29888 | 11563 ft | 341 kts | 136° |
| 2026-05-08 04:17 | 51.23371 | 7.32570 | 12236 ft | 345 kts | 136° |
| 2026-05-08 04:17 | 51.21651 | 7.35273 | 12917 ft | 349 kts | 136° |
| 2026-05-08 04:17 | 51.19911 | 7.38013 | 13611 ft | 354 kts | 136° |
| 2026-05-08 04:17 | 51.18171 | 7.40750 | 14270 ft | 358 kts | 136° |
| 2026-05-08 04:18 | 51.16426 | 7.43490 | 14944 ft | 360 kts | 136° |
| 2026-05-08 04:18 | 51.14577 | 7.46373 | 15671 ft | 363 kts | 137° |
| 2026-05-08 04:18 | 51.12763 | 7.49155 | 16341 ft | 367 kts | 137° |
| 2026-05-08 04:18 | 51.10903 | 7.51989 | 17000 ft | 371 kts | 137° |
| 2026-05-08 04:19 | 51.09048 | 7.54811 | 17643 ft | 375 kts | 137° |
| 2026-05-08 04:19 | 51.07148 | 7.57703 | 18309 ft | 378 kts | 137° |
| 2026-05-08 04:19 | 51.05256 | 7.60585 | 18896 ft | 381 kts | 137° |
| 2026-05-08 04:19 | 51.03320 | 7.63533 | 19483 ft | 384 kts | 137° |
| 2026-05-08 04:20 | 51.01387 | 7.66474 | 20060 ft | 387 kts | 137° |
| 2026-05-08 04:20 | 50.99446 | 7.69422 | 20625 ft | 390 kts | 137° |
| 2026-05-08 04:20 | 50.97459 | 7.72436 | 21183 ft | 394 kts | 137° |
| 2026-05-08 04:20 | 50.95340 | 7.75229 | 21675 ft | 396 kts | 147° |
| 2026-05-08 04:21 | 50.93026 | 7.77565 | 22223 ft | 399 kts | 150° |
| 2026-05-08 04:21 | 50.90622 | 7.79843 | 22716 ft | 403 kts | 150° |
| 2026-05-08 04:21 | 50.88214 | 7.82103 | 23212 ft | 406 kts | 150° |
| 2026-05-08 04:21 | 50.85871 | 7.84327 | 23702 ft | 409 kts | 150° |
| 2026-05-08 04:22 | 50.83443 | 7.86661 | 24123 ft | 412 kts | 150° |
| 2026-05-08 04:22 | 50.80984 | 7.89048 | 24550 ft | 415 kts | 150° |
| 2026-05-08 04:22 | 50.78546 | 7.91427 | 24975 ft | 417 kts | 149° |
| 2026-05-08 04:22 | 50.76060 | 7.93857 | 25398 ft | 419 kts | 149° |
| 2026-05-08 04:23 | 50.73566 | 7.96295 | 25805 ft | 422 kts | 149° |
| 2026-05-08 04:23 | 50.71057 | 7.98743 | 26208 ft | 424 kts | 149° |
| 2026-05-08 04:23 | 50.68551 | 8.01186 | 26599 ft | 427 kts | 150° |
| 2026-05-08 04:23 | 50.66008 | 8.03661 | 26994 ft | 429 kts | 150° |
| 2026-05-08 04:24 | 50.63485 | 8.06112 | 27366 ft | 432 kts | 150° |
| 2026-05-08 04:24 | 50.60900 | 8.08618 | 27745 ft | 434 kts | 149° |
| 2026-05-08 04:24 | 50.58405 | 8.11288 | 28106 ft | 438 kts | 144° |
| 2026-05-08 04:24 | 50.56039 | 8.14281 | 28475 ft | 441 kts | 141° |
| 2026-05-08 04:25 | 50.53705 | 8.17442 | 28834 ft | 443 kts | 140° |
| 2026-05-08 04:25 | 50.51357 | 8.20668 | 29185 ft | 445 kts | 140° |
| 2026-05-08 04:25 | 50.49030 | 8.23837 | 29526 ft | 448 kts | 140° |
| 2026-05-08 04:25 | 50.46641 | 8.27040 | 29860 ft | 450 kts | 141° |
| 2026-05-08 04:26 | 50.44262 | 8.30187 | 30178 ft | 451 kts | 141° |
| 2026-05-08 04:26 | 50.41873 | 8.33318 | 30569 ft | 450 kts | 141° |
| 2026-05-08 04:26 | 50.39461 | 8.36463 | 30984 ft | 448 kts | 141° |
| 2026-05-08 04:26 | 50.37052 | 8.39593 | 31355 ft | 447 kts | 142° |
| 2026-05-08 04:27 | 50.34700 | 8.42645 | 31683 ft | 447 kts | 142° |
| 2026-05-08 04:27 | 50.32290 | 8.45769 | 32021 ft | 447 kts | 142° |
| 2026-05-08 04:27 | 50.29895 | 8.48871 | 32368 ft | 446 kts | 142° |
| 2026-05-08 04:27 | 50.27540 | 8.51918 | 32727 ft | 445 kts | 142° |
| 2026-05-08 04:28 | 50.25132 | 8.55031 | 33074 ft | 445 kts | 142° |
| 2026-05-08 04:28 | 50.22736 | 8.58124 | 33367 ft | 445 kts | 142° |
| 2026-05-08 04:28 | 50.20379 | 8.61162 | 33701 ft | 444 kts | 142° |
| 2026-05-08 04:28 | 50.17983 | 8.64247 | 34035 ft | 443 kts | 142° |
| 2026-05-08 04:29 | 50.15594 | 8.67319 | 34313 ft | 443 kts | 142° |
| 2026-05-08 04:29 | 50.13240 | 8.70343 | 34539 ft | 443 kts | 142° |
| 2026-05-08 04:29 | 50.10845 | 8.73415 | 34751 ft | 444 kts | 142° |
| 2026-05-08 04:29 | 50.08475 | 8.76460 | 35002 ft | 444 kts | 141° |
| 2026-05-08 04:30 | 50.04464 | 8.83796 | 35099 ft | 453 kts | 122° |
| 2026-05-08 04:30 | 50.01657 | 8.92612 | 35103 ft | 453 kts | 116° |
| 2026-05-08 04:31 | 49.99005 | 9.01411 | 35090 ft | 447 kts | 117° |
| 2026-05-08 04:31 | 49.96321 | 9.10114 | 35105 ft | 446 kts | 117° |
| 2026-05-08 04:32 | 49.93613 | 9.18759 | 35093 ft | 446 kts | 117° |
| 2026-05-08 04:32 | 49.90888 | 9.27409 | 35099 ft | 447 kts | 117° |
| 2026-05-08 04:33 | 49.87940 | 9.35850 | 35084 ft | 445 kts | 128° |
| 2026-05-08 04:33 | 49.83737 | 9.42745 | 35094 ft | 441 kts | 139° |
| 2026-05-08 04:34 | 49.79238 | 9.49266 | 35093 ft | 442 kts | 139° |
| 2026-05-08 04:34 | 49.74769 | 9.55783 | 35089 ft | 443 kts | 139° |
| 2026-05-08 04:35 | 49.70317 | 9.62332 | 35090 ft | 443 kts | 138° |
| 2026-05-08 04:35 | 49.65856 | 9.68904 | 35086 ft | 444 kts | 139° |
| 2026-05-08 04:36 | 49.61371 | 9.75494 | 35079 ft | 444 kts | 139° |
| 2026-05-08 04:36 | 49.56892 | 9.82056 | 35081 ft | 444 kts | 139° |
| 2026-05-08 04:37 | 49.52434 | 9.88570 | 35077 ft | 444 kts | 139° |
| 2026-05-08 04:37 | 49.47946 | 9.95109 | 35077 ft | 443 kts | 139° |
| 2026-05-08 04:38 | 49.43454 | 10.01638 | 35075 ft | 442 kts | 139° |
| 2026-05-08 04:38 | 49.39008 | 10.08082 | 35077 ft | 442 kts | 139° |
| 2026-05-08 04:39 | 49.34539 | 10.14543 | 35077 ft | 441 kts | 139° |
| 2026-05-08 04:39 | 49.30101 | 10.20942 | 35088 ft | 440 kts | 139° |
| 2026-05-08 04:40 | 49.25631 | 10.27373 | 35103 ft | 439 kts | 139° |
| 2026-05-08 04:40 | 49.21168 | 10.33776 | 35108 ft | 438 kts | 140° |
| 2026-05-08 04:41 | 49.16745 | 10.40158 | 35110 ft | 437 kts | 139° |
| 2026-05-08 04:41 | 49.12352 | 10.46520 | 35119 ft | 437 kts | 139° |
| 2026-05-08 04:42 | 49.07937 | 10.52897 | 35115 ft | 437 kts | 140° |
| 2026-05-08 04:42 | 49.03509 | 10.59270 | 35121 ft | 437 kts | 140° |
| 2026-05-08 04:43 | 48.99115 | 10.65577 | 35124 ft | 437 kts | 140° |
| 2026-05-08 04:43 | 48.94670 | 10.71940 | 35121 ft | 437 kts | 140° |
| 2026-05-08 04:44 | 48.90260 | 10.78240 | 35107 ft | 437 kts | 140° |
| 2026-05-08 04:44 | 48.85821 | 10.84564 | 35106 ft | 437 kts | 140° |
| 2026-05-08 04:45 | 48.81376 | 10.90872 | 35086 ft | 437 kts | 140° |
| 2026-05-08 04:45 | 48.76961 | 10.97123 | 35086 ft | 437 kts | 140° |
| 2026-05-08 04:46 | 48.72510 | 11.03414 | 35076 ft | 436 kts | 141° |
| 2026-05-08 04:46 | 48.68093 | 11.09640 | 35075 ft | 436 kts | 141° |
| 2026-05-08 04:47 | 48.63639 | 11.15905 | 35071 ft | 435 kts | 141° |
| 2026-05-08 04:47 | 48.59230 | 11.22089 | 35081 ft | 434 kts | 141° |
| 2026-05-08 04:48 | 48.54787 | 11.28305 | 35077 ft | 436 kts | 141° |
| 2026-05-08 04:48 | 48.50284 | 11.34585 | 35086 ft | 445 kts | 141° |
| 2026-05-08 04:49 | 48.45713 | 11.40946 | 35087 ft | 454 kts | 141° |
| 2026-05-08 04:49 | 48.41024 | 11.47460 | 35075 ft | 458 kts | 141° |
| 2026-05-08 04:50 | 48.36353 | 11.53935 | 35068 ft | 458 kts | 142° |
| 2026-05-08 04:50 | 48.31660 | 11.60421 | 35072 ft | 457 kts | 142° |
| 2026-05-08 04:51 | 48.27003 | 11.66839 | 35068 ft | 456 kts | 142° |
| 2026-05-08 04:51 | 48.22317 | 11.73274 | 35075 ft | 455 kts | 142° |
| 2026-05-08 04:52 | 48.17633 | 11.79689 | 35073 ft | 454 kts | 142° |
| 2026-05-08 04:52 | 48.12990 | 11.86034 | 35078 ft | 453 kts | 142° |
| 2026-05-08 04:53 | 48.08355 | 11.92355 | 35073 ft | 452 kts | 143° |
| 2026-05-08 04:53 | 48.03705 | 11.98679 | 35079 ft | 451 kts | 143° |
| 2026-05-08 04:54 | 47.99046 | 12.04999 | 35071 ft | 451 kts | 143° |
| 2026-05-08 04:54 | 47.94418 | 12.11261 | 35075 ft | 450 kts | 143° |
| 2026-05-08 04:55 | 47.89797 | 12.17497 | 35077 ft | 449 kts | 143° |
| 2026-05-08 04:55 | 47.85163 | 12.23738 | 35082 ft | 449 kts | 143° |
| 2026-05-08 04:56 | 47.80508 | 12.29989 | 35081 ft | 448 kts | 143° |
| 2026-05-08 04:56 | 47.75961 | 12.36080 | 35080 ft | 448 kts | 143° |
| 2026-05-08 04:57 | 47.71313 | 12.42292 | 35067 ft | 448 kts | 144° |
| 2026-05-08 04:57 | 47.66701 | 12.48444 | 35084 ft | 447 kts | 144° |
| 2026-05-08 04:58 | 47.63060 | 12.53285 | 35073 ft | 446 kts | 144° |
| 2026-05-08 04:58 | 47.58250 | 12.58917 | 35091 ft | 441 kts | 149° |
| 2026-05-08 04:59 | 47.53277 | 12.64252 | 35105 ft | 440 kts | 150° |
| 2026-05-08 04:59 | 47.48339 | 12.69544 | 35080 ft | 440 kts | 150° |
| 2026-05-08 05:00 | 47.43393 | 12.74897 | 35066 ft | 440 kts | 150° |
| 2026-05-08 05:00 | 47.38509 | 12.80204 | 35078 ft | 438 kts | 150° |
| 2026-05-08 05:01 | 47.33600 | 12.85532 | 35079 ft | 437 kts | 150° |
| 2026-05-08 05:01 | 47.28723 | 12.90812 | 35081 ft | 436 kts | 150° |
| 2026-05-08 05:02 | 47.23819 | 12.96108 | 35077 ft | 435 kts | 150° |
| 2026-05-08 05:02 | 47.18959 | 13.01343 | 35084 ft | 435 kts | 150° |
| 2026-05-08 05:03 | 47.14060 | 13.06607 | 35082 ft | 435 kts | 150° |
| 2026-05-08 05:03 | 47.09187 | 13.11833 | 35075 ft | 435 kts | 150° |
| 2026-05-08 05:04 | 47.04290 | 13.17072 | 35087 ft | 433 kts | 150° |
| 2026-05-08 05:04 | 46.99429 | 13.22260 | 35096 ft | 435 kts | 150° |
| 2026-05-08 05:05 | 46.94519 | 13.27486 | 35088 ft | 436 kts | 150° |
| 2026-05-08 05:05 | 46.89615 | 13.32695 | 35098 ft | 437 kts | 151° |
| 2026-05-08 05:06 | 46.84655 | 13.37951 | 35087 ft | 439 kts | 151° |
| 2026-05-08 05:06 | 46.79732 | 13.43158 | 35060 ft | 438 kts | 151° |
| 2026-05-08 05:07 | 46.74825 | 13.48341 | 35097 ft | 435 kts | 151° |
| 2026-05-08 05:07 | 46.69900 | 13.53523 | 35083 ft | 436 kts | 151° |
| 2026-05-08 05:08 | 46.64999 | 13.58669 | 35071 ft | 435 kts | 151° |
| 2026-05-08 05:08 | 46.60107 | 13.63795 | 35102 ft | 436 kts | 151° |
| 2026-05-08 05:09 | 46.55136 | 13.68988 | 35074 ft | 438 kts | 151° |
| 2026-05-08 05:09 | 46.50192 | 13.74145 | 35095 ft | 439 kts | 151° |
| 2026-05-08 05:10 | 46.42762 | 13.81872 | 35077 ft | 441 kts | 151° |
| 2026-05-08 05:11 | 46.38920 | 13.85857 | 35095 ft | 441 kts | 151° |
| 2026-05-08 05:11 | 46.37286 | 13.87551 | 35083 ft | 442 kts | 151° |
| 2026-05-08 05:12 | 46.33080 | 13.91902 | 35077 ft | 444 kts | 151° |
| 2026-05-08 05:12 | 46.28783 | 13.96338 | 35077 ft | 445 kts | 151° |
| 2026-05-08 05:13 | 46.23751 | 14.01524 | 35078 ft | 446 kts | 151° |
| 2026-05-08 05:13 | 46.19530 | 14.05866 | 35079 ft | 446 kts | 151° |
| 2026-05-08 05:14 | 46.13651 | 14.11898 | 35090 ft | 447 kts | 151° |
| 2026-05-08 05:14 | 46.09416 | 14.16232 | 35082 ft | 448 kts | 151° |
| 2026-05-08 05:15 | 46.04362 | 14.21394 | 35085 ft | 448 kts | 152° |
| 2026-05-08 05:15 | 45.99241 | 14.26612 | 35074 ft | 449 kts | 152° |
| 2026-05-08 05:16 | 45.94161 | 14.31778 | 35081 ft | 448 kts | 152° |
| 2026-05-08 05:16 | 45.89080 | 14.36932 | 35074 ft | 448 kts | 151° |
| 2026-05-08 05:17 | 45.83999 | 14.42075 | 35074 ft | 447 kts | 152° |
| 2026-05-08 05:17 | 45.78911 | 14.47212 | 35068 ft | 447 kts | 151° |
| 2026-05-08 05:18 | 45.73838 | 14.52323 | 35071 ft | 446 kts | 151° |
| 2026-05-08 05:18 | 45.68763 | 14.57424 | 35069 ft | 446 kts | 152° |
| 2026-05-08 05:19 | 45.63667 | 14.62536 | 35070 ft | 446 kts | 152° |
| 2026-05-08 05:19 | 45.58590 | 14.67618 | 35059 ft | 447 kts | 152° |
| 2026-05-08 05:20 | 45.53508 | 14.72694 | 35064 ft | 447 kts | 152° |
| 2026-05-08 05:20 | 45.48603 | 14.78171 | 35073 ft | 451 kts | 146° |
| 2026-05-08 05:21 | 45.43824 | 14.83996 | 35064 ft | 452 kts | 146° |
| 2026-05-08 05:21 | 45.39050 | 14.89823 | 35061 ft | 452 kts | 146° |
| 2026-05-08 05:22 | 45.34272 | 14.95587 | 35060 ft | 453 kts | 146° |
| 2026-05-08 05:22 | 45.29451 | 15.01361 | 35072 ft | 455 kts | 146° |
| 2026-05-08 05:23 | 45.24578 | 15.07177 | 35064 ft | 457 kts | 146° |
| 2026-05-08 05:23 | 45.19714 | 15.12971 | 35070 ft | 458 kts | 146° |
| 2026-05-08 05:24 | 45.14842 | 15.18764 | 35068 ft | 460 kts | 146° |
| 2026-05-08 05:24 | 45.09933 | 15.24586 | 35070 ft | 461 kts | 146° |
| 2026-05-08 05:25 | 45.05016 | 15.30405 | 35071 ft | 461 kts | 146° |
| 2026-05-08 05:25 | 45.00074 | 15.36240 | 35081 ft | 462 kts | 146° |
| 2026-05-08 05:26 | 44.95159 | 15.42029 | 35067 ft | 462 kts | 146° |
| 2026-05-08 05:26 | 44.90189 | 15.47867 | 35077 ft | 468 kts | 145° |
| 2026-05-08 05:27 | 44.85137 | 15.53785 | 35087 ft | 477 kts | 145° |
| 2026-05-08 05:27 | 44.80031 | 15.59760 | 35077 ft | 477 kts | 145° |
| 2026-05-08 05:28 | 44.74929 | 15.65717 | 35075 ft | 476 kts | 145° |
| 2026-05-08 05:28 | 44.69846 | 15.71636 | 35073 ft | 475 kts | 145° |
| 2026-05-08 05:29 | 44.64761 | 15.77542 | 35074 ft | 474 kts | 145° |
| 2026-05-08 05:29 | 44.59652 | 15.83460 | 35071 ft | 474 kts | 145° |
| 2026-05-08 05:30 | 44.54576 | 15.89328 | 35072 ft | 473 kts | 145° |
| 2026-05-08 05:30 | 44.49522 | 15.95155 | 35071 ft | 473 kts | 145° |
| 2026-05-08 05:31 | 44.44450 | 16.00991 | 35065 ft | 473 kts | 146° |
| 2026-05-08 05:31 | 44.39350 | 16.06845 | 35058 ft | 472 kts | 146° |
| 2026-05-08 05:32 | 44.34276 | 16.12656 | 35065 ft | 472 kts | 146° |
| 2026-05-08 05:32 | 44.29324 | 16.18314 | 35054 ft | 472 kts | 146° |
| 2026-05-08 05:33 | 44.24248 | 16.24100 | 35064 ft | 472 kts | 146° |
| 2026-05-08 05:33 | 44.19144 | 16.29905 | 35052 ft | 472 kts | 146° |
| 2026-05-08 05:34 | 44.14077 | 16.35657 | 35048 ft | 471 kts | 146° |
| 2026-05-08 05:34 | 44.09007 | 16.41399 | 35055 ft | 470 kts | 146° |
| 2026-05-08 05:35 | 44.03939 | 16.47126 | 35061 ft | 470 kts | 146° |
| 2026-05-08 05:35 | 43.98804 | 16.52754 | 35056 ft | 469 kts | 147° |
| 2026-05-08 05:36 | 43.93615 | 16.58175 | 35054 ft | 467 kts | 148° |
| 2026-05-08 05:36 | 43.88397 | 16.63606 | 35055 ft | 467 kts | 148° |
| 2026-05-08 05:37 | 43.83249 | 16.68991 | 35055 ft | 467 kts | 147° |
| 2026-05-08 05:37 | 43.78073 | 16.74413 | 35054 ft | 466 kts | 147° |
| 2026-05-08 05:38 | 43.72873 | 16.79853 | 35053 ft | 466 kts | 147° |
| 2026-05-08 05:38 | 43.67706 | 16.85245 | 35050 ft | 466 kts | 147° |
| 2026-05-08 05:39 | 43.62531 | 16.90632 | 35048 ft | 466 kts | 147° |
| 2026-05-08 05:39 | 43.57383 | 16.95980 | 35043 ft | 466 kts | 147° |
| 2026-05-08 05:40 | 43.52187 | 17.01366 | 35042 ft | 465 kts | 147° |
| 2026-05-08 05:40 | 43.47012 | 17.06718 | 35040 ft | 465 kts | 147° |
| 2026-05-08 05:41 | 43.41857 | 17.12037 | 35038 ft | 465 kts | 147° |
| 2026-05-08 05:41 | 43.36684 | 17.17363 | 35036 ft | 464 kts | 147° |
| 2026-05-08 05:42 | 43.31511 | 17.22678 | 35033 ft | 465 kts | 147° |
| 2026-05-08 05:42 | 43.26339 | 17.27980 | 35039 ft | 465 kts | 147° |
| 2026-05-08 05:43 | 43.21151 | 17.33287 | 35037 ft | 466 kts | 147° |
| 2026-05-08 05:43 | 43.15964 | 17.38581 | 35036 ft | 467 kts | 148° |
| 2026-05-08 05:44 | 43.10760 | 17.43882 | 35031 ft | 466 kts | 148° |
| 2026-05-08 05:44 | 43.05564 | 17.49164 | 35038 ft | 466 kts | 148° |
| 2026-05-08 05:45 | 43.00349 | 17.54453 | 35033 ft | 465 kts | 148° |
| 2026-05-08 05:45 | 42.95179 | 17.59685 | 35029 ft | 464 kts | 148° |
| 2026-05-08 05:46 | 42.89984 | 17.64931 | 35026 ft | 463 kts | 148° |
| 2026-05-08 05:46 | 42.84800 | 17.70154 | 35012 ft | 462 kts | 148° |
| 2026-05-08 05:47 | 42.80375 | 17.74605 | 35027 ft | 460 kts | 148° |
| 2026-05-08 05:47 | 42.75254 | 17.79745 | 35021 ft | 459 kts | 148° |
| 2026-05-08 05:48 | 42.70102 | 17.84904 | 35020 ft | 457 kts | 148° |
| 2026-05-08 05:48 | 42.64974 | 17.90029 | 35020 ft | 457 kts | 148° |
| 2026-05-08 05:49 | 42.59884 | 17.95105 | 35017 ft | 456 kts | 148° |
| 2026-05-08 05:49 | 42.54768 | 18.00197 | 35017 ft | 455 kts | 148° |
| 2026-05-08 05:50 | 42.49685 | 18.05245 | 35015 ft | 455 kts | 148° |
| 2026-05-08 05:50 | 42.44558 | 18.10326 | 35015 ft | 455 kts | 148° |
| 2026-05-08 05:51 | 42.39471 | 18.15358 | 35015 ft | 455 kts | 148° |
| 2026-05-08 05:51 | 42.34348 | 18.20415 | 35012 ft | 456 kts | 148° |
| 2026-05-08 05:52 | 42.29210 | 18.25476 | 35009 ft | 457 kts | 148° |
| 2026-05-08 05:52 | 42.24049 | 18.30550 | 34992 ft | 458 kts | 148° |
| 2026-05-08 05:53 | 42.18919 | 18.35583 | 34991 ft | 459 kts | 148° |
| 2026-05-08 05:53 | 42.13873 | 18.40525 | 34990 ft | 459 kts | 148° |
| 2026-05-08 05:54 | 42.08683 | 18.45597 | 34997 ft | 459 kts | 148° |
| 2026-05-08 05:54 | 42.03532 | 18.50622 | 34995 ft | 459 kts | 148° |
| 2026-05-08 05:55 | 41.98381 | 18.55736 | 35004 ft | 460 kts | 147° |
| 2026-05-08 05:55 | 41.93331 | 18.61016 | 35003 ft | 460 kts | 146° |
| 2026-05-08 05:56 | 41.88300 | 18.66291 | 35004 ft | 459 kts | 146° |
| 2026-05-08 05:56 | 41.83267 | 18.71522 | 35004 ft | 459 kts | 147° |
| 2026-05-08 05:57 | 41.78227 | 18.76732 | 35007 ft | 459 kts | 147° |
| 2026-05-08 05:57 | 41.73183 | 18.81932 | 35006 ft | 458 kts | 147° |
| 2026-05-08 05:58 | 41.68141 | 18.87121 | 35007 ft | 457 kts | 147° |
| 2026-05-08 05:58 | 41.63077 | 18.92324 | 35009 ft | 457 kts | 147° |
| 2026-05-08 05:59 | 41.58076 | 18.97453 | 34910 ft | 456 kts | 147° |
| 2026-05-08 05:59 | 41.55546 | 19.00043 | 34641 ft | 452 kts | 146° |
| 2026-05-08 05:59 | 41.53065 | 19.02584 | 34401 ft | 446 kts | 146° |
| 2026-05-08 05:59 | 41.50649 | 19.05054 | 34166 ft | 440 kts | 146° |
| 2026-05-08 06:00 | 41.48390 | 19.07359 | 33937 ft | 437 kts | 146° |
| 2026-05-08 06:00 | 41.45852 | 19.09702 | 33645 ft | 431 kts | 153° |
| 2026-05-08 06:00 | 41.43194 | 19.11418 | 33373 ft | 424 kts | 162° |
| 2026-05-08 06:00 | 41.40410 | 19.12771 | 33118 ft | 422 kts | 163° |
| 2026-05-08 06:01 | 41.37673 | 19.14070 | 32854 ft | 421 kts | 163° |
| 2026-05-08 06:01 | 41.34910 | 19.15380 | 32588 ft | 420 kts | 163° |
| 2026-05-08 06:01 | 41.32125 | 19.16708 | 31986 ft | 428 kts | 163° |
| 2026-05-08 06:01 | 41.29344 | 19.18044 | 31424 ft | 429 kts | 162° |
| 2026-05-08 06:02 | 41.26539 | 19.19403 | 30876 ft | 426 kts | 162° |
| 2026-05-08 06:02 | 41.23754 | 19.20757 | 30342 ft | 424 kts | 162° |
| 2026-05-08 06:02 | 41.21015 | 19.22089 | 29779 ft | 422 kts | 162° |
| 2026-05-08 06:02 | 41.18246 | 19.23436 | 29185 ft | 420 kts | 162° |
| 2026-05-08 06:03 | 41.15531 | 19.24756 | 28599 ft | 418 kts | 162° |
| 2026-05-08 06:03 | 41.12792 | 19.26086 | 28018 ft | 416 kts | 162° |
| 2026-05-08 06:03 | 41.10075 | 19.27403 | 27481 ft | 413 kts | 162° |
| 2026-05-08 06:03 | 41.07417 | 19.28691 | 27020 ft | 408 kts | 162° |
| 2026-05-08 06:04 | 41.04778 | 19.29969 | 26573 ft | 404 kts | 163° |
| 2026-05-08 06:04 | 41.02129 | 19.31250 | 26121 ft | 400 kts | 163° |
| 2026-05-08 06:04 | 40.99552 | 19.32495 | 25688 ft | 396 kts | 163° |
| 2026-05-08 06:04 | 40.96967 | 19.33743 | 25256 ft | 393 kts | 163° |
| 2026-05-08 06:05 | 40.94425 | 19.34968 | 24835 ft | 390 kts | 163° |
| 2026-05-08 06:05 | 40.91871 | 19.36199 | 24415 ft | 387 kts | 163° |
| 2026-05-08 06:05 | 40.89380 | 19.37398 | 24004 ft | 384 kts | 164° |
| 2026-05-08 06:05 | 40.86863 | 19.38608 | 23599 ft | 382 kts | 164° |
| 2026-05-08 06:06 | 40.84394 | 19.39795 | 23120 ft | 380 kts | 164° |
| 2026-05-08 06:06 | 40.81904 | 19.40990 | 22637 ft | 377 kts | 164° |
| 2026-05-08 06:06 | 40.79432 | 19.42177 | 22162 ft | 375 kts | 164° |
| 2026-05-08 06:06 | 40.77009 | 19.43338 | 21705 ft | 373 kts | 164° |
| 2026-05-08 06:07 | 40.74589 | 19.44498 | 21250 ft | 370 kts | 164° |
| 2026-05-08 06:07 | 40.72161 | 19.45661 | 20801 ft | 368 kts | 164° |
| 2026-05-08 06:07 | 40.69757 | 19.46811 | 20360 ft | 366 kts | 164° |
| 2026-05-08 06:07 | 40.67388 | 19.47943 | 19934 ft | 364 kts | 165° |
| 2026-05-08 06:08 | 40.65012 | 19.49078 | 19503 ft | 362 kts | 165° |
| 2026-05-08 06:08 | 40.62646 | 19.50209 | 19119 ft | 359 kts | 165° |
| 2026-05-08 06:08 | 40.60301 | 19.51328 | 18745 ft | 355 kts | 165° |
| 2026-05-08 06:08 | 40.58010 | 19.52419 | 18348 ft | 353 kts | 165° |
| 2026-05-08 06:09 | 40.55704 | 19.53516 | 17889 ft | 350 kts | 165° |
| 2026-05-08 06:09 | 40.53437 | 19.54592 | 17440 ft | 348 kts | 165° |
| 2026-05-08 06:09 | 40.51156 | 19.55672 | 17001 ft | 346 kts | 165° |
| 2026-05-08 06:09 | 40.48846 | 19.56438 | 16561 ft | 338 kts | 178° |
| 2026-05-08 06:10 | 40.46511 | 19.56549 | 16153 ft | 333 kts | 183° |
| 2026-05-08 06:10 | 40.44222 | 19.56497 | 15727 ft | 330 kts | 184° |
| 2026-05-08 06:10 | 40.41921 | 19.56406 | 15313 ft | 328 kts | 185° |
| 2026-05-08 06:10 | 40.39672 | 19.56310 | 14918 ft | 325 kts | 185° |
| 2026-05-08 06:11 | 40.37403 | 19.56209 | 14538 ft | 323 kts | 185° |
| 2026-05-08 06:11 | 40.35175 | 19.56108 | 14212 ft | 321 kts | 185° |
| 2026-05-08 06:11 | 40.32951 | 19.56012 | 13871 ft | 319 kts | 185° |
| 2026-05-08 06:11 | 40.30757 | 19.55921 | 13456 ft | 317 kts | 185° |
| 2026-05-08 06:12 | 40.29417 | 19.55866 | 13224 ft | 316 kts | 185° |
| 2026-05-08 06:12 | 40.27243 | 19.55776 | 12854 ft | 315 kts | 185° |
| 2026-05-08 06:12 | 40.25056 | 19.55696 | 12464 ft | 313 kts | 185° |
| 2026-05-08 06:12 | 40.22884 | 19.55618 | 12063 ft | 311 kts | 185° |
| 2026-05-08 06:13 | 40.20713 | 19.55554 | 11586 ft | 310 kts | 184° |
| 2026-05-08 06:13 | 40.18592 | 19.55478 | 11301 ft | 307 kts | 185° |
| 2026-05-08 06:13 | 40.16457 | 19.55392 | 11055 ft | 303 kts | 185° |
| 2026-05-08 06:13 | 40.14340 | 19.55303 | 10645 ft | 304 kts | 185° |
| 2026-05-08 06:14 | 40.12274 | 19.55209 | 10476 ft | 295 kts | 185° |
| 2026-05-08 06:14 | 40.10247 | 19.55115 | 10385 ft | 283 kts | 185° |
| 2026-05-08 06:14 | 40.08339 | 19.55029 | 10307 ft | 272 kts | 185° |
| 2026-05-08 06:14 | 40.06471 | 19.54947 | 10236 ft | 261 kts | 185° |
| 2026-05-08 06:15 | 40.05281 | 19.54895 | 10127 ft | 257 kts | 185° |
| 2026-05-08 06:15 | 40.02928 | 19.54793 | 9766 ft | 254 kts | 185° |
| 2026-05-08 06:15 | 40.01751 | 19.54739 | 9561 ft | 253 kts | 185° |
| 2026-05-08 06:15 | 39.99422 | 19.54623 | 9181 ft | 250 kts | 185° |
| 2026-05-08 06:16 | 39.98273 | 19.54560 | 8986 ft | 249 kts | 185° |
| 2026-05-08 06:16 | 39.96066 | 19.54432 | 8614 ft | 246 kts | 184° |
| 2026-05-08 06:16 | 39.95181 | 19.54376 | 8466 ft | 246 kts | 185° |
| 2026-05-08 06:16 | 39.93477 | 19.54263 | 8180 ft | 244 kts | 185° |
| 2026-05-08 06:17 | 39.90117 | 19.54014 | 7673 ft | 240 kts | 184° |
| 2026-05-08 06:17 | 39.88443 | 19.53874 | 7422 ft | 239 kts | 185° |
| 2026-05-08 06:17 | 39.86805 | 19.53733 | 7208 ft | 237 kts | 185° |
| 2026-05-08 06:18 | 39.85156 | 19.53585 | 6983 ft | 237 kts | 185° |
| 2026-05-08 06:18 | 39.83533 | 19.53434 | 6818 ft | 234 kts | 185° |
| 2026-05-08 06:18 | 39.81909 | 19.53281 | 6636 ft | 232 kts | 185° |
| 2026-05-08 06:18 | 39.80294 | 19.53123 | 6416 ft | 231 kts | 184° |
| 2026-05-08 06:19 | 39.78696 | 19.52957 | 6197 ft | 230 kts | 185° |
| 2026-05-08 06:19 | 39.77122 | 19.52792 | 6063 ft | 230 kts | 185° |
| 2026-05-08 06:19 | 39.75499 | 19.52636 | 6031 ft | 235 kts | 185° |
| 2026-05-08 06:19 | 39.73869 | 19.52663 | 5956 ft | 234 kts | 166° |
| 2026-05-08 06:20 | 39.72498 | 19.53792 | 5722 ft | 245 kts | 137° |
| 2026-05-08 06:20 | 39.71563 | 19.55672 | 5560 ft | 252 kts | 120° |
| 2026-05-08 06:20 | 39.71095 | 19.57889 | 5454 ft | 253 kts | 108° |
| 2026-05-08 06:20 | 39.70800 | 19.60141 | 5346 ft | 252 kts | 107° |
| 2026-05-08 06:21 | 39.70518 | 19.62369 | 5229 ft | 249 kts | 107° |
| 2026-05-08 06:21 | 39.70421 | 19.64599 | 5098 ft | 259 kts | 87° |
| 2026-05-08 06:21 | 39.71167 | 19.66797 | 4998 ft | 275 kts | 55° |
| 2026-05-08 06:21 | 39.72717 | 19.68346 | 4939 ft | 285 kts | 32° |
| 2026-05-08 06:22 | 39.74464 | 19.69568 | 4795 ft | 291 kts | 31° |
| 2026-05-08 06:22 | 39.76262 | 19.70802 | 4589 ft | 288 kts | 31° |
| 2026-05-08 06:22 | 39.78011 | 19.72024 | 4423 ft | 283 kts | 32° |
| 2026-05-08 06:22 | 39.79728 | 19.73239 | 4231 ft | 279 kts | 33° |
| 2026-05-08 06:23 | 39.81418 | 19.74443 | 4101 ft | 274 kts | 33° |
| 2026-05-08 06:23 | 39.83044 | 19.75619 | 3992 ft | 268 kts | 37° |
| 2026-05-08 06:23 | 39.84294 | 19.77295 | 3871 ft | 249 kts | 68° |
| 2026-05-08 06:23 | 39.84751 | 19.79374 | 3758 ft | 232 kts | 94° |
| 2026-05-08 06:24 | 39.84608 | 19.81383 | 3676 ft | 216 kts | 111° |
| 2026-05-08 06:24 | 39.84044 | 19.83087 | 3539 ft | 201 kts | 122° |
| 2026-05-08 06:24 | 39.83390 | 19.84627 | 3400 ft | 187 kts | 123° |
| 2026-05-08 06:24 | 39.82772 | 19.86057 | 3252 ft | 174 kts | 123° |
| 2026-05-08 06:25 | 39.82204 | 19.87374 | 3174 ft | 159 kts | 123° |
| 2026-05-08 06:25 | 39.81677 | 19.88600 | 3180 ft | 154 kts | 123° |
| 2026-05-08 06:25 | 39.81151 | 19.89817 | 3184 ft | 155 kts | 125° |
| 2026-05-08 06:25 | 39.80397 | 19.90763 | 3187 ft | 154 kts | 154° |
| 2026-05-08 06:26 | 39.79334 | 19.91022 | 3188 ft | 154 kts | 171° |
| 2026-05-08 06:26 | 39.78283 | 19.91169 | 3180 ft | 152 kts | 169° |
| 2026-05-08 06:26 | 39.77247 | 19.91327 | 3169 ft | 146 kts | 172° |
| 2026-05-08 06:26 | 39.76212 | 19.91463 | 3164 ft | 151 kts | 171° |
| 2026-05-08 06:27 | 39.75145 | 19.91613 | 3173 ft | 156 kts | 171° |
| 2026-05-08 06:27 | 39.74043 | 19.91610 | 2922 ft | 159 kts | 178° |
| 2026-05-08 06:27 | 39.72967 | 19.91515 | 2720 ft | 152 kts | 179° |
| 2026-05-08 06:27 | 39.71952 | 19.91417 | 2463 ft | 142 kts | 177° |
| 2026-05-08 06:28 | 39.71003 | 19.91331 | 2290 ft | 133 kts | 177° |
| 2026-05-08 06:28 | 39.70073 | 19.91253 | 2068 ft | 136 kts | 177° |
| 2026-05-08 06:28 | 39.69136 | 19.91172 | 1852 ft | 134 kts | 176° |
| 2026-05-08 06:28 | 39.68206 | 19.90976 | 1674 ft | 138 kts | 186° |
| 2026-05-08 06:29 | 39.67271 | 19.90610 | 1484 ft | 141 kts | 190° |
| 2026-05-08 06:29 | 39.66350 | 19.90186 | 1215 ft | 142 kts | 192° |
| 2026-05-08 06:29 | 39.65400 | 19.89889 | 999 ft | 136 kts | 174° |
| 2026-05-08 06:29 | 39.64472 | 19.90095 | 792 ft | 135 kts | 160° |
| 2026-05-08 06:30 | 39.63541 | 19.90368 | 595 ft | 141 kts | 165° |
| 2026-05-08 06:30 | 39.62587 | 19.90595 | 409 ft | 135 kts | 165° |
| 2026-05-08 06:30 | 39.61707 | 19.90826 | 212 ft | 128 kts | 166° |
| 2026-05-08 06:30 | 39.60849 | 19.91043 | 33 ft | 122 kts | 166° |
| 2026-05-08 06:31 | 39.60115 | 19.91234 | 20 ft | 73 kts | 168° |
| 2026-05-08 06:31 | 39.59866 | 19.91298 | 22 ft | 24 kts | 169° |
| 2026-05-08 06:31 | 39.59714 | 19.91336 | 19 ft | 21 kts | 168° |
| 2026-05-08 06:31 | 39.59575 | 19.91373 | 18 ft | 20 kts | 168° |
| 2026-05-08 06:32 | 39.59439 | 19.91408 | 16 ft | 20 kts | 168° |
| 2026-05-08 06:32 | 39.59307 | 19.91443 | 16 ft | 19 kts | 168° |
| 2026-05-08 06:32 | 39.59216 | 19.91462 | 17 ft | 6 kts | 184° |
| 2026-05-08 06:32 | 39.59177 | 19.91441 | 18 ft | 6 kts | 197° |
| 2026-05-08 06:33 | 39.59144 | 19.91467 | 16 ft | 6 kts | 107° |
| 2026-05-08 06:33 | 39.59168 | 19.91501 | 18 ft | 6 kts | 5° |
| 2026-05-08 06:33 | 39.59205 | 19.91479 | 18 ft | 6 kts | 332° |
| 2026-05-08 06:33 | 39.59253 | 19.91461 | 17 ft | 9 kts | 346° |
| 2026-05-08 06:34 | 39.59338 | 19.91434 | 16 ft | 16 kts | 348° |
| 2026-05-08 06:34 | 39.59466 | 19.91401 | 18 ft | 21 kts | 348° |
| 2026-05-08 06:34 | 39.59626 | 19.91358 | 19 ft | 26 kts | 348° |
| 2026-05-08 06:34 | 39.59800 | 19.91315 | 22 ft | 25 kts | 349° |
| 2026-05-08 06:35 | 39.59965 | 19.91273 | 21 ft | 23 kts | 348° |
| 2026-05-08 06:35 | 39.60119 | 19.91233 | 20 ft | 22 kts | 348° |
| 2026-05-08 06:35 | 39.60271 | 19.91193 | 21 ft | 22 kts | 349° |
| 2026-05-08 06:35 | 39.60417 | 19.91156 | 18 ft | 21 kts | 348° |
| 2026-05-08 06:36 | 39.60541 | 19.91172 | 19 ft | 14 kts | 24° |
| 2026-05-08 06:36 | 39.60586 | 19.91207 | 19 ft | 5 kts | 43° |
| 2026-05-08 06:36 | 39.60597 | 19.91242 | 18 ft | 4 kts | 85° |
| 2026-05-08 06:36 | 39.60589 | 19.91276 | 18 ft | 4 kts | 117° |
| 2026-05-08 06:37 | 39.60582 | 19.91310 | 18 ft | 4 kts | 93° |
| 2026-05-08 06:37 | 39.60586 | 19.91343 | 19 ft | 4 kts | 79° |
| 2026-05-08 06:37 | 39.60591 | 19.91377 | 18 ft | 3 kts | 79° |
| 2026-05-08 06:37 | 39.60592 | 19.91384 | 18 ft | 0 kts | 78° |